createdAt,value
2016-05-21T00:00:00.339Z,1010.95
2016-05-21T00:01:00.342Z,1010.99
2016-05-21T00:02:00.344Z,1011.02
2016-05-21T00:03:00.347Z,1010.96
2016-05-21T00:04:00.350Z,1010.95
2016-05-21T00:05:00.352Z,1010.96
2016-05-21T00:06:00.355Z,1010.97
2016-05-21T00:07:00.357Z,1010.94
2016-05-21T00:08:00.376Z,1010.98
2016-05-21T00:09:00.378Z,1010.93
2016-05-21T00:10:00.381Z,1010.94
2016-05-21T00:11:00.383Z,1010.91
2016-05-21T00:12:00.398Z,1010.92
2016-05-21T00:13:00.417Z,1010.92
2016-05-21T00:14:00.435Z,1010.89
2016-05-21T00:15:00.469Z,1010.9
2016-05-21T00:16:00.488Z,1010.92
2016-05-21T00:17:00.499Z,1010.93
2016-05-21T00:18:00.507Z,1010.9
2016-05-21T00:19:00.516Z,1010.93
2016-05-21T00:20:00.524Z,1010.95
2016-05-21T00:21:00.548Z,1010.9
2016-05-21T00:22:00.554Z,1010.88
2016-05-21T00:23:00.575Z,1010.88
2016-05-21T00:24:00.564Z,1010.92
2016-05-21T00:25:00.570Z,1010.89
2016-05-21T00:26:00.589Z,1010.86
2016-05-21T00:27:00.593Z,1010.86
2016-05-21T00:28:00.597Z,1010.83
2016-05-21T00:29:00.600Z,1010.81
2016-05-21T00:30:00.619Z,1010.85
2016-05-21T00:31:00.622Z,1010.82
2016-05-21T00:32:00.626Z,1010.84
2016-05-21T00:33:00.629Z,1010.87
2016-05-21T00:34:00.631Z,1010.87
2016-05-21T00:35:00.650Z,1010.83
2016-05-21T00:36:00.653Z,1010.87
2016-05-21T00:37:00.655Z,1010.87
2016-05-21T00:38:00.658Z,1010.85
2016-05-21T00:39:00.661Z,1010.86
2016-05-21T00:40:00.678Z,1010.84
2016-05-21T00:41:00.994Z,1010.84
2016-05-21T00:42:00.684Z,1010.8
2016-05-21T00:43:00.686Z,1010.84
2016-05-21T00:44:00.689Z,1010.88
2016-05-21T00:45:00.707Z,1010.78
2016-05-21T00:46:00.711Z,1010.81
2016-05-21T00:47:00.714Z,1010.83
2016-05-21T00:48:00.716Z,1010.81
2016-05-21T00:49:00.719Z,1010.82
2016-05-21T00:50:00.736Z,1010.82
2016-05-21T00:51:00.739Z,1010.81
2016-05-21T00:52:00.742Z,1010.82
2016-05-21T00:53:00.744Z,1010.81
2016-05-21T00:54:00.763Z,1010.79
2016-05-21T00:55:00.765Z,1010.77
2016-05-21T00:56:00.768Z,1010.79
2016-05-21T00:57:00.771Z,1010.78
2016-05-21T00:58:00.773Z,1010.78
2016-05-21T00:59:00.776Z,1010.78
2016-05-21T01:00:00.779Z,1010.77
2016-05-21T01:01:00.798Z,1010.75
2016-05-21T01:02:00.801Z,1010.76
2016-05-21T01:03:00.803Z,1010.77
2016-05-21T01:04:00.821Z,1010.77
2016-05-21T01:05:00.824Z,1010.73
2016-05-21T01:06:00.826Z,1010.77
2016-05-21T01:07:00.829Z,1010.79
2016-05-21T01:08:00.848Z,1010.77
2016-05-21T01:09:00.834Z,1010.78
2016-05-21T01:10:00.853Z,1010.77
2016-05-21T01:11:00.855Z,1010.78
2016-05-21T01:12:00.858Z,1010.82
2016-05-21T01:13:00.861Z,1010.79
2016-05-21T01:14:00.879Z,1010.79
2016-05-21T01:15:00.883Z,1010.8
2016-05-21T01:16:00.885Z,1010.74
2016-05-21T01:17:00.888Z,1010.72
2016-05-21T01:18:00.891Z,1010.74
2016-05-21T01:19:00.908Z,1010.77
2016-05-21T01:20:00.911Z,1010.73
2016-05-21T01:21:00.914Z,1010.68
2016-05-21T01:22:00.916Z,1010.68
2016-05-21T01:23:00.919Z,1010.69
2016-05-21T01:24:00.938Z,1010.71
2016-05-21T01:25:00.940Z,1010.69
2016-05-21T01:26:00.943Z,1010.72
2016-05-21T01:27:00.945Z,1010.75
2016-05-21T01:28:00.963Z,1010.74
2016-05-21T01:29:00.966Z,1010.74
2016-05-21T01:30:00.969Z,1010.73
2016-05-21T01:31:00.972Z,1010.69
2016-05-21T01:32:00.990Z,1010.68
2016-05-21T01:33:00.977Z,1010.65
2016-05-21T01:34:00.996Z,1010.66
2016-05-21T01:35:00.998Z,1010.7
2016-05-21T01:36:01.001Z,1010.66
2016-05-21T01:37:01.004Z,1010.67
2016-05-21T01:38:01.006Z,1010.61
2016-05-21T01:39:01.025Z,1010.63
2016-05-21T01:40:01.028Z,1010.61
2016-05-21T01:41:01.030Z,1010.63
2016-05-21T01:42:01.033Z,1010.62
2016-05-21T01:43:01.036Z,1010.64
2016-05-21T01:44:01.054Z,1010.64
2016-05-21T01:45:01.057Z,1010.61
2016-05-21T01:46:01.059Z,1010.68
2016-05-21T01:47:01.062Z,1010.67
2016-05-21T01:48:01.080Z,1010.69
2016-05-21T01:49:01.083Z,1010.66
2016-05-21T01:50:01.086Z,1010.71
2016-05-21T01:51:01.088Z,1010.66
2016-05-21T01:52:01.091Z,1010.7
2016-05-21T01:53:01.093Z,1010.65
2016-05-21T01:54:01.112Z,1010.68
2016-05-21T01:55:01.115Z,1010.66
2016-05-21T01:56:01.118Z,1010.65
2016-05-21T01:57:01.121Z,1010.65
2016-05-21T01:58:01.123Z,1010.61
2016-05-21T01:59:01.141Z,1010.65
2016-05-21T02:00:01.144Z,1010.59
2016-05-21T02:01:01.146Z,1010.57
2016-05-21T02:02:01.149Z,1010.58
2016-05-21T02:03:01.167Z,1010.57
2016-05-21T02:04:01.170Z,1010.62
2016-05-21T02:05:01.173Z,1010.58
2016-05-21T02:06:01.175Z,1010.6
2016-05-21T02:07:01.178Z,1010.57
2016-05-21T02:08:01.181Z,1010.62
2016-05-21T02:09:01.198Z,1010.61
2016-05-21T02:10:01.201Z,1010.6
2016-05-21T02:11:01.204Z,1010.6
2016-05-21T02:12:01.207Z,1010.61
2016-05-21T02:13:01.226Z,1010.61
2016-05-21T02:14:01.228Z,1010.61
2016-05-21T02:15:01.231Z,1010.61
2016-05-21T02:16:01.234Z,1010.62
2016-05-21T02:17:01.236Z,1010.6
2016-05-21T02:18:01.255Z,1010.6
2016-05-21T02:19:01.257Z,1010.58
2016-05-21T02:20:01.260Z,1010.62
2016-05-21T02:21:01.263Z,1010.6
2016-05-21T02:22:01.266Z,1010.59
2016-05-21T02:23:01.283Z,1010.63
2016-05-21T02:24:01.286Z,1010.61
2016-05-21T02:25:01.289Z,1010.58
2016-05-21T02:26:01.292Z,1010.57
2016-05-21T02:27:01.294Z,1010.58
2016-05-21T02:28:01.312Z,1010.56
2016-05-21T02:29:01.316Z,1010.54
2016-05-21T02:30:01.318Z,1010.55
2016-05-21T02:31:01.321Z,1010.54
2016-05-21T02:32:01.324Z,1010.56
2016-05-21T02:33:01.326Z,1010.57
2016-05-21T02:34:01.345Z,1010.58
2016-05-21T02:35:01.347Z,1010.53
2016-05-21T02:36:01.351Z,1010.53
2016-05-21T02:37:01.352Z,1010.49
2016-05-21T02:38:01.371Z,1010.48
2016-05-21T02:39:01.374Z,1010.48
2016-05-21T02:40:01.376Z,1010.37
2016-05-21T02:41:01.379Z,1010.37
2016-05-21T02:42:01.381Z,1010.36
2016-05-21T02:43:01.384Z,1010.35
2016-05-21T02:44:01.403Z,1010.35
2016-05-21T02:45:01.405Z,1010.41
2016-05-21T02:46:01.408Z,1010.38
2016-05-21T02:47:01.410Z,1010.39
2016-05-21T02:48:01.413Z,1010.34
2016-05-21T02:49:01.431Z,1010.37
2016-05-21T02:50:01.434Z,1010.39
2016-05-21T02:51:01.469Z,1010.42
2016-05-21T02:52:01.455Z,1010.43
2016-05-21T02:53:01.458Z,1010.44
2016-05-21T02:54:01.461Z,1010.46
2016-05-21T02:55:01.463Z,1010.43
2016-05-21T02:56:01.466Z,1010.41
2016-05-21T02:57:01.469Z,1010.43
2016-05-21T02:58:01.471Z,1010.38
2016-05-21T02:59:01.474Z,1010.42
2016-05-21T03:00:01.493Z,1010.38
2016-05-21T03:01:01.496Z,1010.41
2016-05-21T03:02:01.498Z,1010.37
2016-05-21T03:03:01.515Z,1010.4
2016-05-21T03:04:01.504Z,1010.39
2016-05-21T03:05:01.521Z,1010.38
2016-05-21T03:06:01.524Z,1010.41
2016-05-21T03:07:01.526Z,1010.42
2016-05-21T03:08:01.545Z,1010.35
2016-05-21T03:09:01.548Z,1010.4
2016-05-21T03:10:01.551Z,1010.4
2016-05-21T03:11:01.553Z,1010.42
2016-05-21T03:12:01.556Z,1010.42
2016-05-21T03:13:01.559Z,1010.37
2016-05-21T03:14:01.577Z,1010.38
2016-05-21T03:15:01.580Z,1010.37
2016-05-21T03:16:01.583Z,1010.33
2016-05-21T03:17:01.585Z,1010.32
2016-05-21T03:18:01.588Z,1010.3
2016-05-21T03:19:01.606Z,1010.32
2016-05-21T03:20:01.608Z,1010.34
2016-05-21T03:21:01.612Z,1010.33
2016-05-21T03:22:01.614Z,1010.32
2016-05-21T03:23:01.633Z,1010.32
2016-05-21T03:24:01.636Z,1010.27
2016-05-21T03:25:01.638Z,1010.31
2016-05-21T03:26:01.656Z,1010.27
2016-05-21T03:27:01.643Z,1010.25
2016-05-21T03:28:01.647Z,1010.28
2016-05-21T03:29:01.664Z,1010.34
2016-05-21T03:30:01.666Z,1010.34
2016-05-21T03:31:01.669Z,1010.33
2016-05-21T03:32:01.672Z,1010.34
2016-05-21T03:33:01.674Z,1010.33
2016-05-21T03:34:01.693Z,1010.37
2016-05-21T03:35:01.696Z,1010.32
2016-05-21T03:36:01.699Z,1010.32
2016-05-21T03:37:01.701Z,1010.31
2016-05-21T03:38:01.704Z,1010.33
2016-05-21T03:39:01.707Z,1010.33
2016-05-21T03:40:01.725Z,1010.31
2016-05-21T03:41:02.087Z,1010.35
2016-05-21T03:42:01.731Z,1010.34
2016-05-21T03:43:01.733Z,1010.36
2016-05-21T03:44:01.751Z,1010.35
2016-05-21T03:45:01.754Z,1010.29
2016-05-21T03:46:01.756Z,1010.29
2016-05-21T03:47:01.759Z,1010.36
2016-05-21T03:48:01.762Z,1010.34
2016-05-21T03:49:01.781Z,1010.32
2016-05-21T03:50:01.783Z,1010.29
2016-05-21T03:51:01.802Z,1010.32
2016-05-21T03:52:01.789Z,1010.31
2016-05-21T03:53:01.791Z,1010.33
2016-05-21T03:54:01.794Z,1010.36
2016-05-21T03:55:01.813Z,1010.37
2016-05-21T03:56:01.815Z,1010.42
2016-05-21T03:57:01.818Z,1010.35
2016-05-21T03:58:01.821Z,1010.36
2016-05-21T03:59:01.839Z,1010.35
2016-05-21T04:00:01.841Z,1010.37
2016-05-21T04:01:01.844Z,1010.36
2016-05-21T04:02:01.846Z,1010.36
2016-05-21T04:03:01.849Z,1010.33
2016-05-21T04:04:01.852Z,1010.33
2016-05-21T04:05:01.855Z,1010.37
2016-05-21T04:06:01.873Z,1010.35
2016-05-21T04:07:01.876Z,1010.35
2016-05-21T04:08:01.879Z,1010.31
2016-05-21T04:09:01.881Z,1010.32
2016-05-21T04:10:01.884Z,1010.29
2016-05-21T04:11:02.231Z,1010.27
2016-05-21T04:12:01.904Z,1010.23
2016-05-21T04:13:01.907Z,1010.21
2016-05-21T04:14:01.910Z,1010.15
2016-05-21T04:15:01.913Z,1010.18
2016-05-21T04:16:01.932Z,1010.15
2016-05-21T04:17:01.934Z,1010.14
2016-05-21T04:18:01.937Z,1010.16
2016-05-21T04:19:01.939Z,1010.12
2016-05-21T04:20:01.942Z,1010.14
2016-05-21T04:21:01.961Z,1010.12
2016-05-21T04:22:01.964Z,1010.13
2016-05-21T04:23:01.966Z,1010.07
2016-05-21T04:24:01.969Z,1010.08
2016-05-21T04:25:01.971Z,1010.06
2016-05-21T04:26:01.990Z,1010.03
2016-05-21T04:27:01.991Z,1010.08
2016-05-21T04:28:01.994Z,1010.07
2016-05-21T04:29:01.997Z,1010.11
2016-05-21T04:30:02.000Z,1010.1
2016-05-21T04:31:02.019Z,1010.12
2016-05-21T04:32:02.021Z,1010.1
2016-05-21T04:33:02.024Z,1010.14
2016-05-21T04:34:02.026Z,1010.12
2016-05-21T04:35:02.029Z,1010.11
2016-05-21T04:36:02.048Z,1010.06
2016-05-21T04:37:02.065Z,1010.07
2016-05-21T04:38:02.054Z,1010.06
2016-05-21T04:39:02.056Z,1010.06
2016-05-21T04:40:02.059Z,1010.04
2016-05-21T04:41:02.077Z,1010.06
2016-05-21T04:42:02.079Z,1010.13
2016-05-21T04:43:02.082Z,1010.09
2016-05-21T04:44:02.084Z,1010.1
2016-05-21T04:45:02.087Z,1010.12
2016-05-21T04:46:02.106Z,1010.08
2016-05-21T04:47:02.109Z,1010.13
2016-05-21T04:48:02.158Z,1010.08
2016-05-21T04:49:02.114Z,1010.12
2016-05-21T04:50:02.117Z,1010.14
2016-05-21T04:51:02.135Z,1010.14
2016-05-21T04:52:02.137Z,1010.25
2016-05-21T04:53:02.140Z,1010.27
2016-05-21T04:54:02.158Z,1010.39
2016-05-21T04:55:02.145Z,1010.29
2016-05-21T04:56:02.164Z,1010.21
2016-05-21T04:57:02.167Z,1010.13
2016-05-21T04:58:02.169Z,1010.08
2016-05-21T04:59:02.171Z,1010.05
2016-05-21T05:00:02.175Z,1010.07
2016-05-21T05:01:02.193Z,1010.1
2016-05-21T05:02:02.196Z,1010.02
2016-05-21T05:03:02.198Z,1010.02
2016-05-21T05:04:02.201Z,1010.04
2016-05-21T05:05:02.219Z,1010.03
2016-05-21T05:06:02.222Z,1009.99
2016-05-21T05:07:02.224Z,1009.98
2016-05-21T05:08:02.227Z,1010
2016-05-21T05:09:02.245Z,1010.03
2016-05-21T05:10:02.249Z,1010
2016-05-21T05:11:02.251Z,1010.15
2016-05-21T05:12:02.254Z,1010
2016-05-21T05:13:02.257Z,1009.95
2016-05-21T05:14:02.275Z,1010.02
2016-05-21T05:15:02.278Z,1010.03
2016-05-21T05:16:02.281Z,1010.07
2016-05-21T05:17:02.284Z,1010.04
2016-05-21T05:18:02.286Z,1010.08
2016-05-21T05:19:02.289Z,1010.1
2016-05-21T05:20:02.306Z,1010.09
2016-05-21T05:21:02.309Z,1010.13
2016-05-21T05:22:02.312Z,1010.17
2016-05-21T05:23:02.314Z,1010.05
2016-05-21T05:24:02.333Z,1010.05
2016-05-21T05:25:02.492Z,1010.32
2016-05-21T05:26:02.338Z,1010.12
2016-05-21T05:27:02.341Z,1010.07
2016-05-21T05:28:02.359Z,1010.61
2016-05-21T05:29:02.346Z,1010.23
2016-05-21T05:30:02.365Z,1010.56
2016-05-21T05:31:02.367Z,1010.12
2016-05-21T05:32:02.385Z,1010.26
2016-05-21T05:33:02.388Z,1010.73
2016-05-21T05:34:02.391Z,1010.84
2016-05-21T05:35:02.410Z,1010.86
2016-05-21T05:36:02.412Z,1010.89
2016-05-21T05:37:02.416Z,1010.94
2016-05-21T05:38:02.417Z,1010.91
2016-05-21T05:39:02.420Z,1010.8
2016-05-21T05:40:02.438Z,1010.94
2016-05-21T05:41:02.441Z,1010.99
2016-05-21T05:42:02.443Z,1010.87
2016-05-21T05:43:02.462Z,1010.85
2016-05-21T05:44:02.465Z,1010.97
2016-05-21T05:45:02.468Z,1011
2016-05-21T05:46:02.470Z,1010.72
2016-05-21T05:47:02.489Z,1010.66
2016-05-21T05:48:02.491Z,1010.83
2016-05-21T05:49:02.509Z,1010.83
2016-05-21T05:50:02.512Z,1010.96
2016-05-21T05:51:02.515Z,1011.06
2016-05-21T05:52:02.517Z,1011.01
2016-05-21T05:53:02.536Z,1011
2016-05-21T05:54:02.539Z,1011.02
2016-05-21T05:55:02.556Z,1010.99
2016-05-21T05:56:02.559Z,1011.07
2016-05-21T05:57:02.562Z,1010.79
2016-05-21T05:58:02.581Z,1010.55
2016-05-21T05:59:02.583Z,1010.59
2016-05-21T06:00:02.586Z,1010.84
2016-05-21T06:01:02.604Z,1010.84
2016-05-21T06:02:02.607Z,1010.51
2016-05-21T06:03:02.610Z,1010.34
2016-05-21T06:04:02.628Z,1010.56
2016-05-21T06:05:02.631Z,1010.46
2016-05-21T06:06:02.633Z,1010.28
2016-05-21T06:07:02.652Z,1010.22
2016-05-21T06:08:02.654Z,1010.15
2016-05-21T06:09:02.657Z,1010.2
2016-05-21T06:10:02.660Z,1010.2
2016-05-21T06:11:03.257Z,1010.22
2016-05-21T06:12:02.681Z,1010.45
2016-05-21T06:13:02.684Z,1011.31
2016-05-21T06:14:02.702Z,1011.07
2016-05-21T06:15:02.704Z,1011.03
2016-05-21T06:16:02.723Z,1010.48
2016-05-21T06:17:02.726Z,1010.41
2016-05-21T06:18:02.728Z,1010.39
2016-05-21T06:19:02.731Z,1010.29
2016-05-21T06:20:02.749Z,1010.43
2016-05-21T06:21:02.751Z,1010.64
2016-05-21T06:22:02.754Z,1010.44
2016-05-21T06:23:02.773Z,1010.46
2016-05-21T06:24:02.776Z,1010.62
2016-05-21T06:25:02.778Z,1010.74
2016-05-21T06:26:02.797Z,1010.44
2016-05-21T06:27:02.800Z,1010.56
2016-05-21T06:28:02.802Z,1010.37
2016-05-21T06:29:02.820Z,1010.66
2016-05-21T06:30:02.823Z,1010.71
2016-05-21T06:31:02.825Z,1010.66
2016-05-21T06:32:02.828Z,1010.93
2016-05-21T06:33:02.846Z,1010.93
2016-05-21T06:34:02.849Z,1010.89
2016-05-21T06:35:02.852Z,1010.74
2016-05-21T06:36:02.871Z,1010.71
2016-05-21T06:37:02.874Z,1010.6
2016-05-21T06:38:02.876Z,1010.42
2016-05-21T06:39:02.894Z,1010.36
2016-05-21T06:40:02.897Z,1010.28
2016-05-21T06:41:02.900Z,1010.27
2016-05-21T06:42:02.917Z,1010.22
2016-05-21T06:43:02.921Z,1010.24
2016-05-21T06:44:02.923Z,1010.22
2016-05-21T06:45:02.926Z,1010.24
2016-05-21T06:46:02.943Z,1010.24
2016-05-21T06:47:02.946Z,1010.2
2016-05-21T06:48:02.949Z,1010.22
2016-05-21T06:49:02.952Z,1010.2
2016-05-21T06:50:02.971Z,1010.18
2016-05-21T06:51:02.973Z,1010.21
2016-05-21T06:52:02.976Z,1010.16
2016-05-21T06:53:02.994Z,1010.2
2016-05-21T06:54:02.997Z,1010.18
2016-05-21T06:55:03.000Z,1010.21
2016-05-21T06:56:03.331Z,1010.18
2016-05-21T06:57:03.067Z,1010.19
2016-05-21T06:58:03.023Z,1010.26
2016-05-21T06:59:03.026Z,1010.23
2016-05-21T07:00:03.028Z,1010.2
2016-05-21T07:01:03.047Z,1010.2
2016-05-21T07:02:03.050Z,1010.16
2016-05-21T07:03:03.052Z,1010.16
2016-05-21T07:04:03.071Z,1010.14
2016-05-21T07:05:03.074Z,1010.16
2016-05-21T07:06:03.077Z,1010.15
2016-05-21T07:07:03.079Z,1010.1
2016-05-21T07:08:03.097Z,1010.16
2016-05-21T07:09:03.100Z,1010.08
2016-05-21T07:10:03.102Z,1010.04
2016-05-21T07:11:03.104Z,1010.06
2016-05-21T07:12:03.124Z,1010.07
2016-05-21T07:13:03.126Z,1010.09
2016-05-21T07:14:03.129Z,1010.09
2016-05-21T07:15:03.132Z,1010.1
2016-05-21T07:16:03.134Z,1010.12
2016-05-21T07:17:03.152Z,1010.2
2016-05-21T07:18:03.155Z,1010.19
2016-05-21T07:19:03.158Z,1010.2
2016-05-21T07:20:03.176Z,1010.22
2016-05-21T07:21:03.179Z,1010.21
2016-05-21T07:22:03.182Z,1010.33
2016-05-21T07:23:03.184Z,1010.26
2016-05-21T07:24:03.187Z,1010.21
2016-05-21T07:25:03.205Z,1010.2
2016-05-21T07:26:03.209Z,1010.31
2016-05-21T07:27:03.476Z,1010.33
2016-05-21T07:28:03.213Z,1010.41
2016-05-21T07:29:03.232Z,1010.29
2016-05-21T07:30:03.234Z,1010.28
2016-05-21T07:31:03.237Z,1010.21
2016-05-21T07:32:03.256Z,1010.14
2016-05-21T07:33:03.258Z,1010.1
2016-05-21T07:34:03.261Z,1010.12
2016-05-21T07:35:03.263Z,1010.07
2016-05-21T07:36:03.282Z,1010.03
2016-05-21T07:37:03.285Z,1010.07
2016-05-21T07:38:03.287Z,1010.08
2016-05-21T07:39:03.290Z,1010.08
2016-05-21T07:40:03.293Z,1010.11
2016-05-21T07:41:03.342Z,1010.17
2016-05-21T07:42:03.423Z,1010.24
2016-05-21T07:43:03.316Z,1010.22
2016-05-21T07:44:03.319Z,1010.25
2016-05-21T07:45:03.337Z,1010.29
2016-05-21T07:46:03.340Z,1010.31
2016-05-21T07:47:03.343Z,1010.32
2016-05-21T07:48:03.346Z,1010.29
2016-05-21T07:49:03.363Z,1010.3
2016-05-21T07:50:03.366Z,1010.32
2016-05-21T07:51:03.369Z,1010.29
2016-05-21T07:52:03.387Z,1010.35
2016-05-21T07:53:03.389Z,1010.33
2016-05-21T07:54:03.393Z,1010.33
2016-05-21T07:55:03.395Z,1010.36
2016-05-21T07:56:03.414Z,1010.3
2016-05-21T07:57:03.417Z,1010.31
2016-05-21T07:58:03.419Z,1010.24
2016-05-21T07:59:03.422Z,1010.27
2016-05-21T08:00:03.425Z,1010.22
2016-05-21T08:01:03.443Z,1010.23
2016-05-21T08:02:03.445Z,1010.2
2016-05-21T08:03:03.448Z,1010.3
2016-05-21T08:04:03.466Z,1010.31
2016-05-21T08:05:03.469Z,1010.21
2016-05-21T08:06:03.472Z,1010.23
2016-05-21T08:07:03.475Z,1010.32
2016-05-21T08:08:03.493Z,1010.35
2016-05-21T08:09:03.496Z,1010.31
2016-05-21T08:10:03.499Z,1010.25
2016-05-21T08:11:03.501Z,1010.24
2016-05-21T08:12:03.519Z,1010.28
2016-05-21T08:13:03.522Z,1010.31
2016-05-21T08:14:03.524Z,1010.23
2016-05-21T08:15:03.528Z,1010.28
2016-05-21T08:16:03.545Z,1010.3
2016-05-21T08:17:03.549Z,1010.32
2016-05-21T08:18:03.566Z,1010.31
2016-05-21T08:19:03.569Z,1010.28
2016-05-21T08:20:03.572Z,1010.3
2016-05-21T08:21:03.574Z,1010.25
2016-05-21T08:22:03.577Z,1010.29
2016-05-21T08:23:03.596Z,1010.33
2016-05-21T08:24:03.598Z,1010.35
2016-05-21T08:25:03.601Z,1010.32
2016-05-21T08:26:03.604Z,1010.37
2016-05-21T08:27:03.606Z,1010.35
2016-05-21T08:28:03.625Z,1010.27
2016-05-21T08:29:03.628Z,1010.33
2016-05-21T08:30:03.631Z,1010.23
2016-05-21T08:31:03.648Z,1010.24
2016-05-21T08:32:03.651Z,1010.18
2016-05-21T08:33:03.653Z,1010.16
2016-05-21T08:34:03.656Z,1010.1
2016-05-21T08:35:03.675Z,1010.11
2016-05-21T08:36:03.678Z,1010.09
2016-05-21T08:37:03.697Z,1010.14
2016-05-21T08:38:03.699Z,1010.23
2016-05-21T08:39:03.702Z,1010.12
2016-05-21T08:40:03.719Z,1010.2
2016-05-21T08:41:03.707Z,1010.19
2016-05-21T08:42:03.835Z,1010.14
2016-05-21T08:43:03.727Z,1010.22
2016-05-21T08:44:03.730Z,1010.27
2016-05-21T08:45:03.749Z,1010.19
2016-05-21T08:46:03.751Z,1010.2
2016-05-21T08:47:03.754Z,1010.13
2016-05-21T08:48:03.757Z,1010.18
2016-05-21T08:49:03.775Z,1010.12
2016-05-21T08:50:03.777Z,1010.14
2016-05-21T08:51:03.780Z,1010.13
2016-05-21T08:52:03.782Z,1010.14
2016-05-21T08:53:03.801Z,1010.11
2016-05-21T08:54:03.804Z,1010.11
2016-05-21T08:55:03.807Z,1010.16
2016-05-21T08:56:03.825Z,1010.15
2016-05-21T08:57:03.828Z,1010.14
2016-05-21T08:58:03.831Z,1010.09
2016-05-21T08:59:03.849Z,1010.02
2016-05-21T09:00:03.851Z,1009.96
2016-05-21T09:01:03.854Z,1009.93
2016-05-21T09:02:04.200Z,1009.98
2016-05-21T09:03:03.860Z,1009.98
2016-05-21T09:04:03.878Z,1009.96
2016-05-21T09:05:03.880Z,1009.98
2016-05-21T09:06:03.884Z,1009.97
2016-05-21T09:07:03.902Z,1009.95
2016-05-21T09:08:03.905Z,1009.96
2016-05-21T09:09:03.908Z,1010.02
2016-05-21T09:10:03.911Z,1010.01
2016-05-21T09:11:03.913Z,1009.96
2016-05-21T09:12:03.931Z,1009.98
2016-05-21T09:13:03.933Z,1009.97
2016-05-21T09:14:03.936Z,1009.96
2016-05-21T09:15:03.955Z,1009.95
2016-05-21T09:16:03.957Z,1009.99
2016-05-21T09:17:03.975Z,1009.95
2016-05-21T09:18:04.000Z,1009.97
2016-05-21T09:19:04.024Z,1010.03
2016-05-21T09:20:04.047Z,1010.01
2016-05-21T09:21:04.071Z,1010
2016-05-21T09:22:04.111Z,1009.96
2016-05-21T09:23:04.120Z,1009.99
2016-05-21T09:24:04.131Z,1009.96
2016-05-21T09:25:04.142Z,1009.9
2016-05-21T09:26:04.168Z,1009.99
2016-05-21T09:27:04.178Z,1009.93
2016-05-21T09:28:04.183Z,1009.97
2016-05-21T09:29:04.203Z,1010
2016-05-21T09:30:04.209Z,1009.96
2016-05-21T09:31:04.214Z,1009.94
2016-05-21T09:32:04.220Z,1009.85
2016-05-21T09:33:04.224Z,1009.87
2016-05-21T09:34:04.243Z,1009.97
2016-05-21T09:35:04.248Z,1009.88
2016-05-21T09:36:04.251Z,1009.91
2016-05-21T09:37:04.271Z,1009.89
2016-05-21T09:38:04.274Z,1009.86
2016-05-21T09:39:04.278Z,1009.87
2016-05-21T09:40:04.295Z,1009.85
2016-05-21T09:41:04.298Z,1009.95
2016-05-21T09:42:04.302Z,1009.96
2016-05-21T09:43:04.305Z,1009.96
2016-05-21T09:44:04.323Z,1009.86
2016-05-21T09:45:04.325Z,1009.87
2016-05-21T09:46:04.328Z,1009.94
2016-05-21T09:47:04.331Z,1009.85
2016-05-21T09:48:04.349Z,1009.91
2016-05-21T09:49:04.352Z,1009.87
2016-05-21T09:50:04.353Z,1009.9
2016-05-21T09:51:04.373Z,1009.92
2016-05-21T09:52:04.375Z,1009.9
2016-05-21T09:53:04.378Z,1009.83
2016-05-21T09:54:04.396Z,1009.82
2016-05-21T09:55:04.399Z,1009.78
2016-05-21T09:56:04.402Z,1009.7
2016-05-21T09:57:04.435Z,1009.71
2016-05-21T09:58:04.422Z,1009.78
2016-05-21T09:59:04.425Z,1009.74
2016-05-21T10:00:04.428Z,1009.7
2016-05-21T10:01:04.430Z,1009.69
2016-05-21T10:02:04.449Z,1009.72
2016-05-21T10:03:04.452Z,1009.72
2016-05-21T10:04:04.455Z,1009.71
2016-05-21T10:05:04.457Z,1009.66
2016-05-21T10:06:04.476Z,1009.59
2016-05-21T10:07:04.479Z,1009.56
2016-05-21T10:08:04.481Z,1009.57
2016-05-21T10:09:04.515Z,1009.6
2016-05-21T10:10:04.502Z,1009.58
2016-05-21T10:11:04.504Z,1009.56
2016-05-21T10:12:04.507Z,1009.58
2016-05-21T10:13:04.526Z,1009.55
2016-05-21T10:14:04.528Z,1009.55
2016-05-21T10:15:04.531Z,1009.55
2016-05-21T10:16:04.533Z,1009.54
2016-05-21T10:17:04.552Z,1009.5
2016-05-21T10:18:04.554Z,1009.56
2016-05-21T10:19:04.556Z,1009.54
2016-05-21T10:20:04.559Z,1009.5
2016-05-21T10:21:04.563Z,1009.44
2016-05-21T10:22:04.581Z,1009.49
2016-05-21T10:23:04.584Z,1009.4
2016-05-21T10:24:04.587Z,1009.43
2016-05-21T10:25:04.605Z,1009.39
2016-05-21T10:26:04.607Z,1009.41
2016-05-21T10:27:04.610Z,1009.37
2016-05-21T10:28:04.613Z,1009.32
2016-05-21T10:29:04.631Z,1009.38
2016-05-21T10:30:04.633Z,1009.36
2016-05-21T10:31:04.636Z,1009.41
2016-05-21T10:32:04.655Z,1009.41
2016-05-21T10:33:04.658Z,1009.43
2016-05-21T10:34:04.660Z,1009.4
2016-05-21T10:35:04.663Z,1009.37
2016-05-21T10:36:04.682Z,1009.37
2016-05-21T10:37:04.685Z,1009.35
2016-05-21T10:38:04.687Z,1009.39
2016-05-21T10:39:04.690Z,1009.38
2016-05-21T10:40:04.708Z,1009.37
2016-05-21T10:41:04.710Z,1009.33
2016-05-21T10:42:04.712Z,1009.31
2016-05-21T10:43:04.715Z,1009.29
2016-05-21T10:44:04.718Z,1009.29
2016-05-21T10:45:04.737Z,1009.32
2016-05-21T10:46:04.739Z,1009.25
2016-05-21T10:47:04.742Z,1009.28
2016-05-21T10:48:04.948Z,1009.21
2016-05-21T10:49:04.763Z,1009.22
2016-05-21T10:50:04.765Z,1009.25
2016-05-21T10:51:04.768Z,1009.26
2016-05-21T10:52:04.771Z,1009.26
2016-05-21T10:53:04.790Z,1009.24
2016-05-21T10:54:04.792Z,1009.16
2016-05-21T10:55:04.811Z,1009.12
2016-05-21T10:56:04.814Z,1009.12
2016-05-21T10:57:04.817Z,1009.13
2016-05-21T10:58:04.818Z,1009.08
2016-05-21T10:59:04.837Z,1009.02
2016-05-21T11:00:04.839Z,1009.02
2016-05-21T11:01:04.842Z,1009.07
2016-05-21T11:02:05.204Z,1009.08
2016-05-21T11:03:04.848Z,1009.05
2016-05-21T11:04:04.866Z,1009.07
2016-05-21T11:05:04.868Z,1009.05
2016-05-21T11:06:04.871Z,1009
2016-05-21T11:07:04.890Z,1009.01
2016-05-21T11:08:04.893Z,1009.02
2016-05-21T11:09:04.895Z,1008.96
2016-05-21T11:10:04.898Z,1009.01
2016-05-21T11:11:04.916Z,1009.02
2016-05-21T11:12:04.919Z,1009.04
2016-05-21T11:13:04.921Z,1009.02
2016-05-21T11:14:04.924Z,1009.06
2016-05-21T11:15:04.943Z,1008.99
2016-05-21T11:16:04.945Z,1009
2016-05-21T11:17:04.948Z,1009.03
2016-05-21T11:18:04.951Z,1009.08
2016-05-21T11:19:04.968Z,1009.02
2016-05-21T11:20:04.971Z,1009.05
2016-05-21T11:21:04.974Z,1009.06
2016-05-21T11:22:04.976Z,1009.08
2016-05-21T11:23:04.995Z,1009.1
2016-05-21T11:24:04.998Z,1009.08
2016-05-21T11:25:05.000Z,1009.06
2016-05-21T11:26:05.019Z,1009.08
2016-05-21T11:27:05.021Z,1009.01
2016-05-21T11:28:05.025Z,1009.09
2016-05-21T11:29:05.027Z,1009.07
2016-05-21T11:30:05.030Z,1009.07
2016-05-21T11:31:05.047Z,1009.04
2016-05-21T11:32:05.050Z,1009.03
2016-05-21T11:33:05.053Z,1008.98
2016-05-21T11:34:05.072Z,1008.95
2016-05-21T11:35:05.074Z,1008.91
2016-05-21T11:36:05.077Z,1008.89
2016-05-21T11:37:05.080Z,1008.85
2016-05-21T11:38:05.099Z,1008.85
2016-05-21T11:39:05.101Z,1008.86
2016-05-21T11:40:05.104Z,1008.83
2016-05-21T11:41:05.106Z,1008.84
2016-05-21T11:42:05.124Z,1008.85
2016-05-21T11:43:05.126Z,1008.8
2016-05-21T11:44:05.130Z,1008.85
2016-05-21T11:45:05.132Z,1008.87
2016-05-21T11:46:05.151Z,1008.92
2016-05-21T11:47:05.154Z,1008.86
2016-05-21T11:48:05.157Z,1008.86
2016-05-21T11:49:05.159Z,1008.91
2016-05-21T11:50:05.177Z,1008.94
2016-05-21T11:51:05.179Z,1008.86
2016-05-21T11:52:05.182Z,1008.84
2016-05-21T11:53:05.185Z,1008.84
2016-05-21T11:54:05.203Z,1008.85
2016-05-21T11:55:05.206Z,1008.86
2016-05-21T11:56:05.209Z,1008.86
2016-05-21T11:57:05.290Z,1008.86
2016-05-21T11:58:05.230Z,1008.8
2016-05-21T11:59:05.233Z,1008.85
2016-05-21T12:00:05.235Z,1008.84
2016-05-21T12:01:05.238Z,1008.81
2016-05-21T12:02:05.255Z,1008.82
2016-05-21T12:03:05.259Z,1008.8
2016-05-21T12:04:05.262Z,1008.77
2016-05-21T12:05:05.280Z,1008.75
2016-05-21T12:06:05.282Z,1008.84
2016-05-21T12:07:05.285Z,1008.81
2016-05-21T12:08:05.288Z,1008.86